San Acacia, NM

12:06 AM MDT on May 27, 2015 (GMT -0600)
Albuquerque Double Eagle | | Change Station
CLOSE
Current Station
Airport
Location: Albuquerque Double Eagle,
Elevation: 5837 ft
Nearby Weather Stations

Elev 5837 ft 35.15 °N, 106.79 °W | Updated 11 minutes ago

Partly Cloudy
Partly Cloudy
57 °F
Feels Like 57 °F
N
7
Wind Variable Wind from NNW

Today
High -- | Low -- °F
--% Chance of Precip.
Yesterday
High -- | Low -- °F
Precip. -- in
5:58 AM 8:11 PM
Waxing Gibbous, 64% visible
Pressure 30.15 in
Visibility 10.0 miles
Clouds Scattered Clouds 12000 ft
Dew Point 44 °F
Humidity 62%
Rainfall 0.00 in
Snow Depth Not available.
UV 0 out of 12
Pollen 4.80 out of 12
Air Quality Not available.
Flu Activity Local Activity
METAR KAEG 270555Z AUTO 33006KT 10SM SCT120 14/07 A3015 RMK AO2 T01400067 10211 20136

More Conditions Fewer Conditions

Pressure 30.15 in
Visibility 10.0 miles
Clouds Scattered Clouds 12000 ft
Dew Point 44 °F
Humidity 62%
Rainfall 0.00 in
Snow Depth Not available.
UV 0 out of 12
Pollen 4.80 out of 12
Air Quality Not available.
Flu Activity Local Activity
METAR KAEG 270555Z AUTO 33006KT 10SM SCT120 14/07 A3015 RMK AO2 T01400067 10211 20136

More Conditions Fewer Conditions

Nowcast | as of 10:03 PM MDT on May 26, 2015

Through 12 am MDT...isolated showers and thunderstorms will continue to be possible. Most of the activity will move toward the east or east northeast at speeds from 15 to 20 mph. Stronger cells will be capable of producing a brief downpour...pea size hail...wind gusts up to 40 mph...and cloud to ground lightning. Rain amounts will generally vary from a few hundredths to a tenth of an inch with locally higher amounts possible from a few cells.

×

10-Day Weather Forecast

Almanac

Astronomy

May. 27, 2015 Rise Set
Actual Time
Civil Twilight
Nautical Twilight
Astronomical Twilight
Moon
Length of Visible Light
Length of Day
Tomorrow will be .
, % of the Moon is Illuminated

Today's Extremes

State Highs State Lows

Community

WunderPhotos

Upload Photos

1,824,617 photos uploaded!

WunderBlogs® & News

Nearby

Air Quality

  Air Quality AQ Index Pollutant
Not available.

Snow Depth

Station Depth Elevation

Earthquake Activity

City Distance Mag. Time & Date
Minimum magnitude displayed is 2.5.

Coastal Water Temperatures

Place Temperature

Stations

Nearby Weather Stations

Station Location Temp. Windchill Dew Point Humidity Wind Precip. Elev Updated Type